Terminal Aerodrome Forecast
Issued by NWS Duluth, MN

Home | Current Version | Previous Version | Text Only | Print | Product List | Glossary On
Versions: 1 2 3 4 5 6 7 8 9 10 11 12 13 14 15 16 17 18 19 20 21 22 23 24 25 26 27 28 29 30 31
534
FTUS43 KDLH 071727
TAFDLH
TAF
KDLH 071727Z 0718/0818 27012KT 3SM -SN BR OVC010
     FM072200 30015G24KT 3SM -SN BLSN OVC013
     FM080200 32018G28KT 4SM -SN BLSN OVC015
     FM080900 32015G25KT 6SM -SN BLSN OVC020
     FM081600 33015G25KT P6SM -SN SCT025 OVC035=

USA.gov is the U.S. government's official web portal to all federal, state and local government web resources and services.